createdAt,value
2022-07-25T04:00:27.536Z,63.81
2022-07-25T04:01:27.515Z,63.91
2022-07-25T04:02:27.542Z,63.61
2022-07-25T04:03:27.459Z,63.71
2022-07-25T04:04:27.452Z,63.81
2022-07-25T04:05:27.438Z,63.71
2022-07-25T04:06:27.444Z,63.71
2022-07-25T04:07:27.447Z,63.61
2022-07-25T04:08:27.423Z,63.81
2022-07-25T04:09:27.423Z,63.81
2022-07-25T04:10:28.383Z,63.61
2022-07-25T04:11:32.413Z,63.61
2022-07-25T04:12:27.364Z,63.61
2022-07-25T04:13:27.352Z,63.71
2022-07-25T04:14:27.361Z,63.81
2022-07-25T04:15:27.381Z,63.71
2022-07-25T04:16:27.857Z,63.28
2022-07-25T04:17:27.334Z,63.18
2022-07-25T04:18:28.749Z,62.78
2022-07-25T04:19:28.916Z,63.08
2022-07-25T04:20:27.285Z,63.48
2022-07-25T04:21:27.303Z,63.18
2022-07-25T04:22:32.283Z,63.58
2022-07-25T04:23:27.254Z,63.48
2022-07-25T04:24:27.239Z,63.78
2022-07-25T04:25:27.257Z,63.48
2022-07-25T04:26:27.213Z,63.48
2022-07-25T04:27:27.207Z,63.48
2022-07-25T04:28:27.206Z,63.68
2022-07-25T04:29:27.182Z,63.38
2022-07-25T04:30:27.222Z,63.68
2022-07-25T04:31:27.240Z,63.68
2022-07-25T04:32:27.194Z,63.38
2022-07-25T04:33:32.158Z,63.58
2022-07-25T04:34:27.142Z,63.28
2022-07-25T04:35:27.125Z,63.88
2022-07-25T04:36:27.115Z,63.88
2022-07-25T04:37:27.087Z,63.68
2022-07-25T04:38:27.109Z,63.68
2022-07-25T04:39:27.081Z,63.58
2022-07-25T04:40:27.168Z,63.71
2022-07-25T04:41:27.063Z,63.48
2022-07-25T04:42:27.052Z,63.61
2022-07-25T04:43:27.071Z,64.11
2022-07-25T04:44:32.033Z,64.61
2022-07-25T04:45:27.125Z,63.31
2022-07-25T04:46:27.001Z,63.61
2022-07-25T04:47:26.994Z,63.31
2022-07-25T04:48:27.226Z,63.71
2022-07-25T04:49:26.976Z,63.81
2022-07-25T04:50:26.959Z,63.91
2022-07-25T04:51:26.932Z,64.51
2022-07-25T04:52:26.925Z,63.61
2022-07-25T04:53:26.915Z,63.78
2022-07-25T04:54:26.980Z,63.38
2022-07-25T04:55:31.961Z,63.88
2022-07-25T04:56:26.907Z,63.88
2022-07-25T04:57:26.890Z,63.08
2022-07-25T04:58:26.864Z,63.11
2022-07-25T04:59:26.883Z,63.91
2022-07-25T05:00:26.841Z,63.81
2022-07-25T05:01:26.879Z,63.68
2022-07-25T05:02:26.903Z,63.28
2022-07-25T05:03:26.804Z,63.38
2022-07-25T05:04:26.812Z,63.78
2022-07-25T05:05:26.823Z,63.28
2022-07-25T05:06:31.816Z,63.18
2022-07-25T05:07:26.772Z,63.08
2022-07-25T05:08:26.770Z,63.58
2022-07-25T05:09:26.733Z,63.88
2022-07-25T05:10:26.802Z,63.28
2022-07-25T05:11:26.732Z,63.68
2022-07-25T05:12:26.710Z,62.68
2022-07-25T05:13:26.750Z,62.59
2022-07-25T05:14:26.720Z,62.35
2022-07-25T05:15:26.688Z,62.45
2022-07-25T05:16:26.731Z,62.45
2022-07-25T05:17:31.730Z,62.52
2022-07-25T05:18:26.676Z,62.65
2022-07-25T05:19:26.625Z,62.32
2022-07-25T05:20:26.628Z,61.60
2022-07-25T05:21:26.601Z,61.33
2022-07-25T05:22:28.502Z,61.20
2022-07-25T05:23:28.145Z,60.50
2022-07-25T05:24:26.569Z,59.61
2022-07-25T05:25:26.573Z,59.91
2022-07-25T05:26:26.546Z,59.61
2022-07-25T05:27:26.604Z,60.21
2022-07-25T05:28:31.577Z,59.78
2022-07-25T05:29:26.510Z,59.61
2022-07-25T05:30:26.539Z,59.98
2022-07-25T05:31:26.537Z,59.25
2022-07-25T05:32:26.484Z,59.28
2022-07-25T05:33:26.486Z,58.56
2022-07-25T05:34:26.475Z,58.65
2022-07-25T05:35:26.452Z,58.95
2022-07-25T05:36:26.494Z,58.23
2022-07-25T05:37:26.477Z,58.62
2022-07-25T05:38:26.427Z,58.10
2022-07-25T05:39:31.437Z,58.20
2022-07-25T05:40:26.398Z,58.03
2022-07-25T05:41:26.398Z,58.30
2022-07-25T05:42:26.374Z,58.20
2022-07-25T05:43:26.368Z,57.90
2022-07-25T05:44:26.350Z,57.90
2022-07-25T05:45:26.337Z,58.00
2022-07-25T05:46:26.399Z,57.70
2022-07-25T05:47:26.374Z,58.30
2022-07-25T05:48:26.323Z,58.30
2022-07-25T05:49:26.293Z,58.00
2022-07-25T05:50:31.329Z,58.30
2022-07-25T05:51:27.728Z,57.83
2022-07-25T05:52:26.263Z,58.20
2022-07-25T05:53:26.254Z,58.10
2022-07-25T05:54:26.241Z,58.40
2022-07-25T05:55:26.238Z,58.30
2022-07-25T05:56:26.308Z,58.60
2022-07-25T05:57:26.204Z,57.90
2022-07-25T05:58:29.615Z,57.58
2022-07-25T05:59:26.199Z,56.88
2022-07-25T06:00:26.236Z,57.18
2022-07-25T06:01:31.215Z,57.18
2022-07-25T06:02:26.307Z,56.98
2022-07-25T06:03:26.240Z,57.28
2022-07-25T06:04:27.369Z,56.68
2022-07-25T06:05:26.140Z,57.31
2022-07-25T06:06:26.124Z,57.18
2022-07-25T06:07:26.097Z,57.21
2022-07-25T06:08:26.084Z,57.60
2022-07-25T06:09:26.075Z,57.70
2022-07-25T06:10:26.067Z,57.70
2022-07-25T06:11:26.062Z,57.60
2022-07-25T06:12:31.079Z,57.70
2022-07-25T06:13:26.031Z,57.90
2022-07-25T06:14:26.029Z,57.81
2022-07-25T06:15:26.854Z,57.87
2022-07-25T06:16:26.102Z,57.58
2022-07-25T06:17:29.233Z,57.38
2022-07-25T06:18:26.981Z,56.36
2022-07-25T06:19:25.972Z,56.46
2022-07-25T06:20:25.954Z,56.49
2022-07-25T06:21:25.978Z,56.88
2022-07-25T06:22:25.974Z,57.48
2022-07-25T06:23:30.990Z,57.58
2022-07-25T06:24:25.915Z,58.07
2022-07-25T06:25:25.916Z,57.38
2022-07-25T06:26:25.895Z,57.81
2022-07-25T06:27:29.251Z,57.68
2022-07-25T06:28:25.869Z,57.70
2022-07-25T06:29:25.860Z,58.00
2022-07-25T06:30:25.872Z,58.17
2022-07-25T06:31:25.884Z,57.87
2022-07-25T06:32:25.856Z,57.38
2022-07-25T06:33:25.810Z,57.35
2022-07-25T06:34:30.854Z,56.56
2022-07-25T06:35:25.788Z,56.46
2022-07-25T06:36:32.227Z,56.56
2022-07-25T06:37:26.768Z,56.36
2022-07-25T06:38:25.752Z,56.56
2022-07-25T06:39:25.889Z,57.15
2022-07-25T06:40:25.844Z,57.55
2022-07-25T06:41:25.801Z,56.36
2022-07-25T06:42:25.735Z,56.56
2022-07-25T06:43:25.700Z,56.13
2022-07-25T06:44:25.694Z,56.43
2022-07-25T06:45:30.745Z,56.70
2022-07-25T06:46:25.785Z,54.89
2022-07-25T06:47:25.657Z,55.58
2022-07-25T06:48:25.669Z,55.98
2022-07-25T06:49:25.635Z,55.68
2022-07-25T06:50:25.620Z,55.58
2022-07-25T06:51:25.643Z,55.16
2022-07-25T06:52:25.613Z,55.46
2022-07-25T06:53:25.592Z,55.06
2022-07-25T06:54:25.577Z,54.96
2022-07-25T06:55:25.571Z,55.36
2022-07-25T06:56:30.588Z,55.46
2022-07-25T06:57:25.546Z,55.56
2022-07-25T06:58:25.918Z,54.99
2022-07-25T06:59:25.527Z,55.68
2022-07-25T07:00:25.640Z,56.28
2022-07-25T07:01:25.606Z,55.46
2022-07-25T07:02:25.490Z,55.46
2022-07-25T07:03:25.610Z,55.26
2022-07-25T07:04:25.470Z,54.89
2022-07-25T07:05:25.472Z,55.98
2022-07-25T07:06:25.456Z,55.58
2022-07-25T07:07:30.483Z,56.18
2022-07-25T07:08:25.466Z,55.88
2022-07-25T07:09:25.417Z,55.88
2022-07-25T07:10:25.405Z,55.49
2022-07-25T07:11:25.412Z,55.49
2022-07-25T07:12:25.385Z,55.29
2022-07-25T07:13:25.375Z,55.39
2022-07-25T07:14:25.363Z,55.39
2022-07-25T07:15:25.357Z,55.39
2022-07-25T07:16:25.438Z,55.58
2022-07-25T07:17:25.330Z,55.58
2022-07-25T07:18:30.344Z,55.49
2022-07-25T07:19:25.309Z,55.78
2022-07-25T07:20:25.296Z,55.09
2022-07-25T07:21:25.301Z,55.19
2022-07-25T07:22:25.274Z,55.46
2022-07-25T07:23:25.310Z,55.56
2022-07-25T07:24:25.254Z,54.86
2022-07-25T07:25:28.348Z,54.86
2022-07-25T07:26:25.246Z,55.16
2022-07-25T07:27:25.225Z,55.36
2022-07-25T07:28:25.209Z,55.36
2022-07-25T07:29:30.224Z,55.76
2022-07-25T07:30:37.660Z,55.16
2022-07-25T07:31:26.294Z,55.26
2022-07-25T07:32:25.268Z,55.43
2022-07-25T07:33:25.159Z,55.04
2022-07-25T07:34:25.188Z,55.11
2022-07-25T07:35:25.138Z,54.32
2022-07-25T07:36:25.134Z,54.49
2022-07-25T07:37:25.115Z,53.89
2022-07-25T07:38:25.112Z,54.10
2022-07-25T07:39:25.094Z,54.19
2022-07-25T07:40:30.110Z,54.52
2022-07-25T07:41:25.083Z,54.42
2022-07-25T07:42:25.066Z,54.61
2022-07-25T07:43:29.615Z,55.33
2022-07-25T07:44:26.040Z,54.91
2022-07-25T07:45:25.032Z,54.91
2022-07-25T07:46:25.083Z,54.81
2022-07-25T07:47:25.013Z,55.21
2022-07-25T07:48:25.000Z,54.74
2022-07-25T07:49:25.037Z,55.01
2022-07-25T07:50:24.973Z,54.94
2022-07-25T07:51:29.999Z,55.11
2022-07-25T07:52:24.953Z,54.91
2022-07-25T07:53:24.956Z,54.91
2022-07-25T07:54:24.936Z,55.30
2022-07-25T07:55:24.927Z,54.61
2022-07-25T07:56:24.926Z,55.30
2022-07-25T07:57:24.907Z,55.21
2022-07-25T07:58:24.886Z,54.52
2022-07-25T07:59:24.884Z,55.47
2022-07-25T08:00:24.871Z,54.79
2022-07-25T08:01:24.915Z,54.49
2022-07-25T08:02:29.937Z,54.27
2022-07-25T08:03:24.963Z,54.36
2022-07-25T08:04:24.821Z,54.66
2022-07-25T08:05:24.888Z,54.56
2022-07-25T08:06:24.811Z,53.67
2022-07-25T08:07:24.799Z,54.46
2022-07-25T08:08:29.126Z,53.47
2022-07-25T08:09:25.769Z,53.67
2022-07-25T08:10:24.759Z,54.36
2022-07-25T08:11:24.744Z,53.45
2022-07-25T08:12:24.748Z,53.75
2022-07-25T08:13:30.310Z,54.04
2022-07-25T08:14:24.720Z,53.15
2022-07-25T08:15:24.701Z,53.64
2022-07-25T08:16:24.769Z,53.45
2022-07-25T08:17:28.496Z,53.45
2022-07-25T08:18:24.664Z,53.05
2022-07-25T08:19:24.660Z,52.95
2022-07-25T08:20:38.941Z,52.36
2022-07-25T08:21:25.634Z,52.06
2022-07-25T08:22:24.630Z,52.93
2022-07-25T08:23:24.614Z,52.93
2022-07-25T08:24:29.713Z,52.14
2022-07-25T08:25:24.589Z,52.44
2022-07-25T08:26:24.581Z,52.04
2022-07-25T08:27:24.582Z,52.73
2022-07-25T08:28:24.567Z,52.63
2022-07-25T08:29:28.244Z,52.21
2022-07-25T08:30:24.552Z,52.73
2022-07-25T08:31:24.594Z,52.01
2022-07-25T08:32:24.522Z,52.91
2022-07-25T08:33:24.511Z,51.92
2022-07-25T08:34:24.517Z,51.89
2022-07-25T08:35:29.525Z,52.19
2022-07-25T08:36:24.472Z,51.89
2022-07-25T08:37:24.506Z,51.89
2022-07-25T08:38:24.458Z,51.50
2022-07-25T08:39:24.438Z,51.89
2022-07-25T08:40:24.427Z,51.50
2022-07-25T08:41:24.919Z,50.38
2022-07-25T08:42:24.421Z,50.59
2022-07-25T08:43:24.397Z,50.68
2022-07-25T08:44:24.417Z,50.59
2022-07-25T08:45:24.437Z,50.68
2022-07-25T08:46:29.428Z,50.49
2022-07-25T08:47:24.424Z,50.19
2022-07-25T08:48:24.544Z,49.99
2022-07-25T08:49:24.388Z,50.56
2022-07-25T08:50:24.319Z,49.97
2022-07-25T08:51:24.308Z,49.38
2022-07-25T08:52:24.307Z,49.16
2022-07-25T08:53:33.589Z,49.35
2022-07-25T08:54:25.293Z,48.96
2022-07-25T08:55:24.300Z,49.75
2022-07-25T08:56:24.254Z,49.06
2022-07-25T08:57:29.275Z,48.25
2022-07-25T08:58:24.231Z,48.54
2022-07-25T08:59:24.221Z,48.22
2022-07-25T09:00:24.214Z,47.92
2022-07-25T09:01:24.263Z,48.32
2022-07-25T09:02:24.363Z,48.03
2022-07-25T09:03:24.240Z,48.13
2022-07-25T09:04:24.169Z,47.83
2022-07-25T09:05:24.156Z,47.92
2022-07-25T09:06:24.146Z,47.91
2022-07-25T09:07:24.154Z,47.61
2022-07-25T09:08:29.168Z,47.12
2022-07-25T09:09:24.112Z,47.31
2022-07-25T09:10:24.167Z,47.61
2022-07-25T09:11:24.094Z,47.61
2022-07-25T09:12:26.048Z,46.62
2022-07-25T09:13:24.082Z,47.02
2022-07-25T09:14:24.063Z,47.91
2022-07-25T09:15:24.056Z,46.70
2022-07-25T09:16:24.056Z,46.80
2022-07-25T09:17:24.040Z,46.80
2022-07-25T09:18:24.026Z,47.39
2022-07-25T09:19:29.057Z,46.80
2022-07-25T09:20:24.078Z,46.11
2022-07-25T09:21:24.015Z,45.89
2022-07-25T09:22:23.986Z,46.38
2022-07-25T09:23:23.961Z,46.28
2022-07-25T09:24:23.950Z,46.38
2022-07-25T09:25:23.942Z,45.60
2022-07-25T09:26:23.943Z,45.79
2022-07-25T09:27:23.930Z,46.26
2022-07-25T09:28:23.906Z,45.99
2022-07-25T09:29:23.909Z,46.38
2022-07-25T09:30:23.888Z,46.38
2022-07-25T09:31:23.941Z,46.28
2022-07-25T09:32:28.902Z,46.46
2022-07-25T09:33:23.876Z,45.65
2022-07-25T09:34:25.594Z,44.96
2022-07-25T09:35:23.841Z,44.94
2022-07-25T09:36:23.820Z,45.24
2022-07-25T09:37:23.826Z,44.55
2022-07-25T09:38:23.799Z,44.53
2022-07-25T09:39:23.789Z,44.73
2022-07-25T09:40:23.776Z,44.02
2022-07-25T09:41:23.769Z,43.62
2022-07-25T09:42:23.758Z,42.02
2022-07-25T09:43:23.758Z,42.36
2022-07-25T09:44:23.734Z,41.46
2022-07-25T09:45:31.563Z,41.25
2022-07-25T09:46:23.823Z,41.44
2022-07-25T09:47:23.739Z,41.56
2022-07-25T09:48:23.789Z,40.88
2022-07-25T09:49:23.706Z,41.07
2022-07-25T09:50:23.687Z,41.35
2022-07-25T09:51:23.668Z,41.07
2022-07-25T09:52:23.661Z,41.17
2022-07-25T09:53:23.644Z,41.17
2022-07-25T09:54:23.689Z,41.56
2022-07-25T09:55:23.626Z,41.36
2022-07-25T09:56:23.609Z,41.00
2022-07-25T09:57:23.623Z,41.58
2022-07-25T09:58:28.613Z,40.90
2022-07-25T09:59:23.600Z,42.19
2022-07-25T10:00:23.589Z,41.99
2022-07-25T10:01:23.664Z,41.99
2022-07-25T10:02:23.603Z,42.21
2022-07-25T10:03:23.545Z,42.41
2022-07-25T10:04:23.524Z,41.92
2022-07-25T10:05:23.589Z,42.60
2022-07-25T10:06:23.546Z,42.02
2022-07-25T10:07:27.093Z,42.50
2022-07-25T10:08:24.490Z,41.92
2022-07-25T10:09:23.476Z,41.52
2022-07-25T10:10:23.460Z,41.62
2022-07-25T10:11:28.560Z,41.42
2022-07-25T10:12:23.473Z,41.92
2022-07-25T10:13:23.455Z,40.84
2022-07-25T10:14:23.436Z,41.03
2022-07-25T10:15:23.421Z,41.82
2022-07-25T10:16:23.452Z,41.52
2022-07-25T10:17:23.541Z,41.92
2022-07-25T10:18:23.389Z,42.21
2022-07-25T10:19:23.370Z,41.92
2022-07-25T10:20:23.360Z,41.82
2022-07-25T10:21:26.767Z,42.91
2022-07-25T10:22:46.482Z,43.02
2022-07-25T10:23:24.369Z,42.91
2022-07-25T10:24:28.337Z,42.91
2022-07-25T10:25:23.331Z,42.43
2022-07-25T10:26:23.316Z,43.23
2022-07-25T10:27:23.283Z,42.94
2022-07-25T10:28:23.282Z,42.74
2022-07-25T10:29:23.262Z,43.12
2022-07-25T10:30:23.263Z,42.33
2022-07-25T10:31:23.339Z,43.02
2022-07-25T10:32:23.233Z,41.55
2022-07-25T10:33:23.229Z,41.94
2022-07-25T10:34:23.211Z,43.02
2022-07-25T10:35:23.199Z,42.23
2022-07-25T10:36:23.197Z,42.33
2022-07-25T10:37:28.266Z,41.84
2022-07-25T10:38:23.189Z,43.02
2022-07-25T10:39:23.185Z,42.72
2022-07-25T10:40:23.146Z,42.11
2022-07-25T10:41:23.136Z,42.90
2022-07-25T10:42:23.126Z,42.82
2022-07-25T10:43:23.123Z,43.02
2022-07-25T10:44:23.125Z,42.72
2022-07-25T10:45:23.128Z,42.50
2022-07-25T10:46:23.173Z,42.72
2022-07-25T10:47:23.073Z,42.62
2022-07-25T10:48:23.074Z,42.62
2022-07-25T10:49:31.103Z,42.13
2022-07-25T10:50:53.440Z,42.23
2022-07-25T10:51:24.050Z,42.91
2022-07-25T10:52:23.046Z,42.62
2022-07-25T10:53:23.022Z,42.55
2022-07-25T10:54:23.034Z,42.82
2022-07-25T10:55:22.989Z,42.33
2022-07-25T10:56:22.978Z,42.52
2022-07-25T10:57:22.967Z,42.72
2022-07-25T10:58:22.965Z,42.33
2022-07-25T10:59:22.942Z,42.91
2022-07-25T11:00:22.971Z,42.31
2022-07-25T11:01:23.042Z,42.11
2022-07-25T11:02:22.991Z,42.68
2022-07-25T11:03:27.934Z,41.70
2022-07-25T11:04:22.915Z,41.80
2022-07-25T11:05:22.901Z,41.50
2022-07-25T11:06:22.869Z,41.60
2022-07-25T11:07:22.970Z,41.49
2022-07-25T11:08:23.101Z,41.39
2022-07-25T11:09:27.258Z,41.68
2022-07-25T11:10:22.828Z,41.58
2022-07-25T11:11:22.816Z,40.80
2022-07-25T11:12:22.805Z,41.07
2022-07-25T11:13:22.806Z,41.27
2022-07-25T11:14:22.788Z,41.07
2022-07-25T11:15:22.773Z,40.58
2022-07-25T11:16:27.837Z,41.07
2022-07-25T11:17:22.772Z,40.19
2022-07-25T11:18:22.779Z,40.09
2022-07-25T11:19:22.732Z,39.70
2022-07-25T11:20:22.725Z,38.82
2022-07-25T11:21:22.710Z,39.41
2022-07-25T11:22:22.714Z,39.43
2022-07-25T11:23:22.706Z,38.94
2022-07-25T11:24:22.692Z,39.12
2022-07-25T11:25:22.666Z,39.41
2022-07-25T11:26:22.666Z,39.41
2022-07-25T11:27:22.651Z,38.92
2022-07-25T11:28:22.646Z,39.78
2022-07-25T11:29:27.650Z,39.98
2022-07-25T11:30:22.640Z,40.37
2022-07-25T11:31:22.660Z,40.37
2022-07-25T11:32:22.596Z,40.25
2022-07-25T11:33:22.632Z,39.45
2022-07-25T11:34:22.574Z,39.55
2022-07-25T11:35:22.565Z,39.33
2022-07-25T11:36:22.556Z,38.53
2022-07-25T11:37:22.543Z,38.42
2022-07-25T11:38:22.548Z,37.81
2022-07-25T11:39:22.526Z,37.91
2022-07-25T11:40:22.522Z,38.20
2022-07-25T11:41:22.500Z,38.38
2022-07-25T11:42:27.514Z,38.01
2022-07-25T11:43:22.495Z,37.91
2022-07-25T11:44:22.493Z,38.71
2022-07-25T11:45:22.459Z,39.61
2022-07-25T11:46:22.508Z,39.41
2022-07-25T11:47:22.438Z,38.04
2022-07-25T11:48:22.438Z,39.61
2022-07-25T11:49:22.469Z,38.43
2022-07-25T11:50:22.440Z,39.12
2022-07-25T11:51:22.398Z,38.24
2022-07-25T11:52:22.388Z,38.63
2022-07-25T11:53:27.406Z,38.53
2022-07-25T11:54:22.406Z,38.43
2022-07-25T11:55:22.379Z,38.42
2022-07-25T11:57:23.336Z,38.20
2022-07-25T11:58:22.336Z,38.30
2022-07-25T11:59:22.313Z,36.80
2022-07-25T12:00:22.307Z,37.27
2022-07-25T12:01:22.293Z,36.49
2022-07-25T12:02:22.587Z,36.90
2022-07-25T12:03:22.482Z,37.19
2022-07-25T12:04:22.268Z,37.46
2022-07-25T12:05:22.253Z,37.27
2022-07-25T12:06:27.264Z,36.38
2022-07-25T12:07:22.255Z,36.38
2022-07-25T12:08:22.256Z,36.16
2022-07-25T12:09:22.217Z,35.58
2022-07-25T12:10:22.201Z,35.58
2022-07-25T12:11:22.190Z,35.47
2022-07-25T12:12:22.181Z,36.05
2022-07-25T12:13:22.179Z,36.07
2022-07-25T12:14:22.162Z,35.70
2022-07-25T12:15:22.150Z,35.80
2022-07-25T12:16:22.205Z,35.71
2022-07-25T12:17:22.130Z,36.10
2022-07-25T12:18:22.143Z,36.00
2022-07-25T12:19:27.153Z,35.70
2022-07-25T12:20:22.100Z,35.80
2022-07-25T12:21:22.091Z,35.99
2022-07-25T12:22:22.078Z,35.58
2022-07-25T12:23:22.150Z,34.61
2022-07-25T12:24:22.074Z,35.50
2022-07-25T12:25:22.054Z,36.30
2022-07-25T12:26:22.069Z,36.69
2022-07-25T12:27:22.028Z,36.22
2022-07-25T12:28:22.020Z,35.89
2022-07-25T12:29:22.026Z,35.70
2022-07-25T12:30:27.082Z,36.67
2022-07-25T12:31:22.095Z,36.07
2022-07-25T12:32:21.982Z,35.76
2022-07-25T12:33:21.971Z,35.66
2022-07-25T12:34:21.969Z,35.94
2022-07-25T12:35:21.948Z,35.22
2022-07-25T12:36:21.940Z,33.96
2022-07-25T12:37:21.928Z,33.94
2022-07-25T12:38:21.919Z,35.13
2022-07-25T12:39:21.917Z,35.33
2022-07-25T12:40:21.901Z,35.24
2022-07-25T12:41:26.909Z,35.45
2022-07-25T12:42:21.892Z,35.64
2022-07-25T12:43:21.866Z,37.52
2022-07-25T12:44:21.869Z,37.45
2022-07-25T12:45:21.848Z,36.98
2022-07-25T12:46:21.877Z,37.29
2022-07-25T12:47:21.825Z,38.09
2022-07-25T12:48:21.819Z,38.38
2022-07-25T12:49:21.876Z,38.18
2022-07-25T12:50:21.796Z,37.71
2022-07-25T12:51:21.788Z,37.71
2022-07-25T12:52:26.815Z,38.61
2022-07-25T12:53:21.763Z,38.40
2022-07-25T12:54:22.639Z,38.69
2022-07-25T12:55:21.854Z,37.43
2022-07-25T12:56:21.749Z,35.18
2022-07-25T12:57:21.751Z,34.79
2022-07-25T12:58:21.713Z,35.28
2022-07-25T12:59:21.714Z,34.01
2022-07-25T13:00:21.692Z,34.50
2022-07-25T13:01:21.804Z,34.40
2022-07-25T13:02:21.794Z,34.32
2022-07-25T13:03:26.684Z,33.93
2022-07-25T13:04:21.693Z,34.12
2022-07-25T13:05:21.667Z,33.64
2022-07-25T13:06:21.638Z,34.42
2022-07-25T13:07:21.624Z,33.93
2022-07-25T13:08:21.608Z,34.22
2022-07-25T13:09:21.606Z,34.32
2022-07-25T13:10:21.597Z,33.73
2022-07-25T13:11:21.576Z,34.34
2022-07-25T13:12:21.569Z,34.44
2022-07-25T13:13:21.559Z,34.14
2022-07-25T13:14:21.556Z,34.73
2022-07-25T13:15:21.539Z,34.65
2022-07-25T13:16:26.607Z,34.84
2022-07-25T13:17:26.739Z,34.55
2022-07-25T13:18:22.526Z,34.94
2022-07-25T13:19:21.501Z,35.04
2022-07-25T13:20:21.493Z,35.25
2022-07-25T13:21:21.477Z,34.86
2022-07-25T13:22:21.471Z,35.16
2022-07-25T13:23:21.459Z,34.77
2022-07-25T13:24:21.449Z,35.06
2022-07-25T13:25:21.429Z,34.77
2022-07-25T13:26:21.419Z,34.47
2022-07-25T13:27:21.417Z,34.67
2022-07-25T13:28:21.407Z,34.47
2022-07-25T13:29:26.419Z,34.77
2022-07-25T13:30:21.409Z,35.33
2022-07-25T13:31:21.491Z,35.45
2022-07-25T13:32:21.359Z,35.06
2022-07-25T13:33:21.346Z,35.45
2022-07-25T13:34:21.336Z,35.06
2022-07-25T13:35:23.390Z,35.55
2022-07-25T13:36:22.315Z,35.45
2022-07-25T13:37:21.329Z,35.64
2022-07-25T13:38:21.295Z,35.84
2022-07-25T13:39:21.303Z,35.94
2022-07-25T13:40:21.282Z,35.66
2022-07-25T13:41:21.264Z,35.84
2022-07-25T13:42:26.335Z,36.44
2022-07-25T13:43:21.266Z,36.33
2022-07-25T13:44:21.257Z,36.15
2022-07-25T13:45:21.230Z,36.44
2022-07-25T13:46:21.236Z,35.95
2022-07-25T13:47:21.198Z,36.83
2022-07-25T13:48:30.333Z,36.46
2022-07-25T13:49:22.316Z,36.54
2022-07-25T13:50:21.334Z,36.83
2022-07-25T13:51:21.158Z,36.34
2022-07-25T13:52:21.155Z,36.24
2022-07-25T13:53:21.136Z,37.41
2022-07-25T13:54:21.136Z,37.41
2022-07-25T13:55:26.172Z,37.62
2022-07-25T13:56:21.131Z,37.14
2022-07-25T13:57:21.135Z,37.54
2022-07-25T13:58:21.090Z,37.63
2022-07-25T13:59:21.926Z,37.55
2022-07-25T14:00:21.072Z,38.04
2022-07-25T14:01:21.148Z,38.24
2022-07-25T14:02:21.138Z,38.14
2022-07-25T14:03:21.031Z,37.85
2022-07-25T14:04:21.034Z,38.82
2022-07-25T14:05:21.019Z,38.14
2022-07-25T14:06:20.999Z,38.82
2022-07-25T14:07:20.990Z,39.23
2022-07-25T14:08:26.003Z,40.50
2022-07-25T14:09:20.991Z,43.95
2022-07-25T14:10:20.991Z,47.18
2022-07-25T14:11:20.945Z,55.98
2022-07-25T14:12:20.939Z,58.99
2022-07-25T14:13:20.925Z,60.95
2022-07-25T14:14:20.923Z,62.98
2022-07-25T14:15:20.913Z,67.08
2022-07-25T14:16:20.899Z,64.06
2022-07-25T14:17:20.939Z,65.77
2022-07-25T14:18:20.877Z,66.23
2022-07-25T14:19:20.861Z,65.73
2022-07-25T14:20:20.862Z,65.01
2022-07-25T14:21:25.862Z,62.94
2022-07-25T14:22:20.844Z,65.41
2022-07-25T14:23:20.819Z,64.62
2022-07-25T14:24:20.810Z,64.78
2022-07-25T14:25:20.807Z,62.32
2022-07-25T14:26:20.793Z,64.36
2022-07-25T14:27:20.775Z,61.69
2022-07-25T14:28:20.775Z,61.90
2022-07-25T14:29:20.774Z,59.01
2022-07-25T14:30:20.756Z,59.30
2022-07-25T14:31:20.789Z,59.11
2022-07-25T14:32:25.748Z,58.29
2022-07-25T14:33:20.715Z,57.40
2022-07-25T14:34:20.706Z,56.62
2022-07-25T14:35:20.706Z,56.49
2022-07-25T14:36:20.681Z,54.52
2022-07-25T14:37:20.668Z,54.72
2022-07-25T14:38:20.660Z,55.77
2022-07-25T14:39:20.650Z,54.69
2022-07-25T14:40:20.666Z,54.79
2022-07-25T14:41:20.643Z,55.48
2022-07-25T14:42:20.615Z,54.17
2022-07-25T14:43:25.625Z,54.57
2022-07-25T14:44:20.611Z,55.55
2022-07-25T14:45:20.587Z,54.17
2022-07-25T14:46:20.656Z,54.83
2022-07-25T14:47:20.642Z,55.03
2022-07-25T14:48:20.552Z,54.61
2022-07-25T14:49:20.599Z,55.20
2022-07-25T14:50:20.541Z,54.91
2022-07-25T14:51:20.532Z,54.52
2022-07-25T14:52:20.516Z,53.80
2022-07-25T14:53:20.511Z,51.74
2022-07-25T14:54:25.508Z,52.89
2022-07-25T14:55:20.475Z,51.12
2022-07-25T14:56:20.599Z,52.30
2022-07-25T14:57:20.455Z,52.69
2022-07-25T14:58:20.445Z,51.12
2022-07-25T14:59:20.433Z,52.01
2022-07-25T15:00:20.611Z,52.59
2022-07-25T15:01:20.456Z,50.81
2022-07-25T15:02:20.401Z,50.61
2022-07-25T15:03:20.395Z,50.32
2022-07-25T15:04:20.405Z,49.90
2022-07-25T15:05:25.391Z,48.92
2022-07-25T15:06:21.815Z,48.82
2022-07-25T15:07:20.350Z,49.41
2022-07-25T15:08:20.339Z,50.49
2022-07-25T15:09:20.328Z,50.49
2022-07-25T15:10:20.322Z,48.80
2022-07-25T15:11:20.314Z,48.90
2022-07-25T15:12:20.294Z,49.38
2022-07-25T15:13:30.963Z,48.80
2022-07-25T15:14:21.274Z,47.62
2022-07-25T15:15:20.269Z,47.79
2022-07-25T15:16:25.368Z,47.11
2022-07-25T15:17:20.242Z,46.91
2022-07-25T15:18:20.230Z,46.23
2022-07-25T15:19:20.219Z,47.30
2022-07-25T15:20:20.210Z,45.42
2022-07-25T15:21:20.209Z,46.20
2022-07-25T15:22:20.186Z,45.72
2022-07-25T15:23:20.178Z,44.64
2022-07-25T15:24:20.168Z,45.32
2022-07-25T15:25:58.437Z,43.76
2022-07-25T15:26:21.153Z,43.56
2022-07-25T15:27:25.165Z,43.56
2022-07-25T15:28:20.123Z,44.42
2022-07-25T15:29:20.113Z,44.03
2022-07-25T15:30:20.101Z,43.84
2022-07-25T15:31:20.140Z,43.15
2022-07-25T15:32:20.110Z,42.76
2022-07-25T15:33:20.070Z,42.76
2022-07-25T15:34:20.059Z,42.56
2022-07-25T15:35:20.051Z,41.17
2022-07-25T15:36:20.052Z,40.88
2022-07-25T15:37:20.033Z,41.27
2022-07-25T15:38:25.037Z,40.97
2022-07-25T15:39:20.030Z,40.78
2022-07-25T15:40:20.037Z,41.36
2022-07-25T15:41:19.994Z,41.36
2022-07-25T15:42:19.975Z,41.36
2022-07-25T15:43:19.967Z,41.66
2022-07-25T15:44:19.953Z,41.07
2022-07-25T15:45:35.189Z,41.07
2022-07-25T15:46:21.015Z,41.25
2022-07-25T15:47:19.925Z,40.97
2022-07-25T15:48:19.909Z,41.17
2022-07-25T15:49:19.984Z,41.56
2022-07-25T15:50:19.895Z,42.05
2022-07-25T15:51:24.939Z,41.76
2022-07-25T15:52:19.933Z,41.36
2022-07-25T15:53:19.882Z,41.86
2022-07-25T15:54:19.849Z,41.46
2022-07-25T15:55:19.838Z,42.74
2022-07-25T15:56:19.837Z,41.46
2022-07-25T15:57:19.824Z,41.56
2022-07-25T15:58:19.802Z,41.46
2022-07-25T15:59:19.794Z,42.44
2022-07-25T16:00:19.806Z,40.97
2022-07-25T16:01:19.855Z,40.97
2022-07-25T16:02:19.762Z,41.86
2022-07-25T16:03:19.750Z,41.86
2022-07-25T16:04:24.808Z,41.07
2022-07-25T16:05:19.753Z,41.39
2022-07-25T16:06:19.751Z,42.17
2022-07-25T16:07:19.794Z,41.29
2022-07-25T16:08:19.706Z,41.19
2022-07-25T16:09:19.687Z,41.49
2022-07-25T16:10:19.676Z,40.09
2022-07-25T16:11:19.681Z,40.68
2022-07-25T16:12:19.654Z,39.80
2022-07-25T16:13:19.647Z,39.31
2022-07-25T16:14:19.639Z,39.70
2022-07-25T16:15:19.633Z,39.61
2022-07-25T16:16:19.725Z,39.88
2022-07-25T16:17:24.635Z,39.88
2022-07-25T16:18:19.615Z,39.29
2022-07-25T16:19:19.605Z,38.92
2022-07-25T16:20:19.569Z,39.31
2022-07-25T16:21:19.563Z,39.90
2022-07-25T16:22:19.557Z,39.51
2022-07-25T16:23:19.539Z,38.82
2022-07-25T16:24:19.527Z,39.23
2022-07-25T16:25:19.520Z,39.22
2022-07-25T16:26:19.881Z,39.22
2022-07-25T16:27:19.510Z,39.33
2022-07-25T16:28:19.512Z,39.62
2022-07-25T16:29:19.476Z,39.43
2022-07-25T16:30:24.483Z,38.96
2022-07-25T16:31:19.528Z,38.96
2022-07-25T16:32:19.496Z,39.54
2022-07-25T16:33:19.433Z,39.64
2022-07-25T16:34:19.420Z,39.96
2022-07-25T16:35:19.411Z,39.37
2022-07-25T16:36:19.403Z,40.25
2022-07-25T16:37:19.415Z,40.17
2022-07-25T16:38:19.379Z,40.08
2022-07-25T16:39:19.369Z,40.17
2022-07-25T16:40:19.356Z,39.88
2022-07-25T16:41:19.355Z,40.56
2022-07-25T16:42:19.346Z,40.29
2022-07-25T16:43:24.347Z,39.70
2022-07-25T16:44:19.336Z,40.19
2022-07-25T16:45:19.335Z,40.00
2022-07-25T16:46:19.346Z,40.21
2022-07-25T16:47:19.293Z,40.31
2022-07-25T16:48:19.274Z,39.92
2022-07-25T16:49:19.333Z,40.51
2022-07-25T16:50:19.250Z,40.01
2022-07-25T16:51:19.242Z,41.02
2022-07-25T16:52:19.247Z,40.33
2022-07-25T16:53:19.222Z,40.62